sensor_id;sensor_type;location;lat;lon;timestamp;temperature;humidity
17489;DHT22;8861;52.644;4.734;2023-07-09T00:02:20;22.00;99.90
17489;DHT22;8861;52.644;4.734;2023-07-09T00:04:48;22.00;99.90
17489;DHT22;8861;52.644;4.734;2023-07-09T00:07:27;22.00;99.90
17489;DHT22;8861;52.644;4.734;2023-07-09T00:09:54;22.00;99.90
17489;DHT22;8861;52.644;4.734;2023-07-09T00:12:23;22.00;99.90
17489;DHT22;8861;52.644;4.734;2023-07-09T00:14:50;22.00;99.90
17489;DHT22;8861;52.644;4.734;2023-07-09T00:17:21;22.00;99.90
17489;DHT22;8861;52.644;4.734;2023-07-09T00:19:50;21.90;99.90
17489;DHT22;8861;52.644;4.734;2023-07-09T00:22:18;21.90;99.90
17489;DHT22;8861;52.644;4.734;2023-07-09T00:24:50;21.90;99.90
17489;DHT22;8861;52.644;4.734;2023-07-09T00:27:18;21.90;99.90
17489;DHT22;8861;52.644;4.734;2023-07-09T00:29:47;21.90;99.90
17489;DHT22;8861;52.644;4.734;2023-07-09T00:32:19;21.80;99.90
17489;DHT22;8861;52.644;4.734;2023-07-09T00:34:47;21.90;99.90
17489;DHT22;8861;52.644;4.734;2023-07-09T00:37:16;21.80;99.90
17489;DHT22;8861;52.644;4.734;2023-07-09T00:39:43;21.80;99.90
17489;DHT22;8861;52.644;4.734;2023-07-09T00:42:14;21.80;99.90
17489;DHT22;8861;52.644;4.734;2023-07-09T00:44:43;21.80;99.90
17489;DHT22;8861;52.644;4.734;2023-07-09T00:47:22;21.80;99.90
17489;DHT22;8861;52.644;4.734;2023-07-09T00:49:59;21.80;99.90
17489;DHT22;8861;52.644;4.734;2023-07-09T00:52:30;21.80;99.90
17489;DHT22;8861;52.644;4.734;2023-07-09T00:55:04;21.70;99.90
17489;DHT22;8861;52.644;4.734;2023-07-09T00:57:32;21.70;99.90
17489;DHT22;8861;52.644;4.734;2023-07-09T01:00:02;21.70;99.90
17489;DHT22;8861;52.644;4.734;2023-07-09T01:02:35;21.70;99.90
17489;DHT22;8861;52.644;4.734;2023-07-09T01:05:03;21.70;99.90
17489;DHT22;8861;52.644;4.734;2023-07-09T01:07:32;21.70;99.90
17489;DHT22;8861;52.644;4.734;2023-07-09T01:10:00;21.70;99.90
17489;DHT22;8861;52.644;4.734;2023-07-09T01:12:27;21.60;99.90
17489;DHT22;8861;52.644;4.734;2023-07-09T01:14:56;21.60;99.90
17489;DHT22;8861;52.644;4.734;2023-07-09T01:17:26;21.60;99.90
17489;DHT22;8861;52.644;4.734;2023-07-09T01:19:55;21.60;99.90
17489;DHT22;8861;52.644;4.734;2023-07-09T01:22:24;21.60;99.90
17489;DHT22;8861;52.644;4.734;2023-07-09T01:24:56;21.70;99.90
17489;DHT22;8861;52.644;4.734;2023-07-09T01:27:29;21.70;99.90
17489;DHT22;8861;52.644;4.734;2023-07-09T01:29:57;21.70;99.90
17489;DHT22;8861;52.644;4.734;2023-07-09T01:32:25;21.70;99.90
17489;DHT22;8861;52.644;4.734;2023-07-09T01:34:56;21.70;99.90
17489;DHT22;8861;52.644;4.734;2023-07-09T01:37:27;21.70;99.90
17489;DHT22;8861;52.644;4.734;2023-07-09T01:39:54;21.80;99.90
17489;DHT22;8861;52.644;4.734;2023-07-09T01:42:23;21.70;99.90
17489;DHT22;8861;52.644;4.734;2023-07-09T01:44:51;21.80;99.90
17489;DHT22;8861;52.644;4.734;2023-07-09T01:47:19;21.80;99.90
17489;DHT22;8861;52.644;4.734;2023-07-09T01:49:46;21.80;99.90
17489;DHT22;8861;52.644;4.734;2023-07-09T01:52:15;21.80;99.90
17489;DHT22;8861;52.644;4.734;2023-07-09T01:54:46;21.80;99.90
17489;DHT22;8861;52.644;4.734;2023-07-09T01:57:17;21.70;99.90
17489;DHT22;8861;52.644;4.734;2023-07-09T01:59:49;21.70;99.90
17489;DHT22;8861;52.644;4.734;2023-07-09T02:02:16;21.60;99.90
17489;DHT22;8861;52.644;4.734;2023-07-09T02:04:49;21.60;99.90
17489;DHT22;8861;52.644;4.734;2023-07-09T02:07:17;21.60;99.90
17489;DHT22;8861;52.644;4.734;2023-07-09T02:09:46;21.60;99.90
17489;DHT22;8861;52.644;4.734;2023-07-09T02:12:14;21.50;99.90
17489;DHT22;8861;52.644;4.734;2023-07-09T02:14:42;21.50;99.90
17489;DHT22;8861;52.644;4.734;2023-07-09T02:17:10;21.50;99.90
17489;DHT22;8861;52.644;4.734;2023-07-09T02:19:38;21.40;99.90
17489;DHT22;8861;52.644;4.734;2023-07-09T02:22:06;21.40;99.90
17489;DHT22;8861;52.644;4.734;2023-07-09T02:24:33;21.40;99.90
17489;DHT22;8861;52.644;4.734;2023-07-09T02:27:04;21.40;99.90
17489;DHT22;8861;52.644;4.734;2023-07-09T02:29:32;21.30;99.90
17489;DHT22;8861;52.644;4.734;2023-07-09T02:32:00;21.30;99.90
17489;DHT22;8861;52.644;4.734;2023-07-09T02:34:28;21.30;99.90
17489;DHT22;8861;52.644;4.734;2023-07-09T02:36:57;21.30;99.90
17489;DHT22;8861;52.644;4.734;2023-07-09T02:39:25;21.30;99.90
17489;DHT22;8861;52.644;4.734;2023-07-09T02:41:52;21.30;99.90
17489;DHT22;8861;52.644;4.734;2023-07-09T02:44:21;21.20;99.90
17489;DHT22;8861;52.644;4.734;2023-07-09T02:46:48;21.20;99.90
17489;DHT22;8861;52.644;4.734;2023-07-09T02:49:15;21.20;99.90
17489;DHT22;8861;52.644;4.734;2023-07-09T02:51:42;21.20;99.90
17489;DHT22;8861;52.644;4.734;2023-07-09T02:54:09;21.20;99.90
17489;DHT22;8861;52.644;4.734;2023-07-09T02:56:36;21.20;99.90
17489;DHT22;8861;52.644;4.734;2023-07-09T02:59:04;21.20;99.90
17489;DHT22;8861;52.644;4.734;2023-07-09T03:01:33;21.20;99.90
17489;DHT22;8861;52.644;4.734;2023-07-09T03:04:02;21.20;99.90
17489;DHT22;8861;52.644;4.734;2023-07-09T03:06:29;21.20;99.90
17489;DHT22;8861;52.644;4.734;2023-07-09T03:08:59;21.30;99.90
17489;DHT22;8861;52.644;4.734;2023-07-09T03:11:28;21.20;99.90
17489;DHT22;8861;52.644;4.734;2023-07-09T03:13:57;21.20;99.90
17489;DHT22;8861;52.644;4.734;2023-07-09T03:16:26;21.20;99.90
17489;DHT22;8861;52.644;4.734;2023-07-09T03:18:54;21.20;99.90
17489;DHT22;8861;52.644;4.734;2023-07-09T03:21:21;21.20;99.90
17489;DHT22;8861;52.644;4.734;2023-07-09T03:23:49;21.20;99.90
17489;DHT22;8861;52.644;4.734;2023-07-09T03:26:16;21.20;99.90
17489;DHT22;8861;52.644;4.734;2023-07-09T03:28:43;21.20;99.90
17489;DHT22;8861;52.644;4.734;2023-07-09T03:31:10;21.10;99.90
17489;DHT22;8861;52.644;4.734;2023-07-09T03:33:37;21.10;99.90
17489;DHT22;8861;52.644;4.734;2023-07-09T03:36:07;21.10;99.90
17489;DHT22;8861;52.644;4.734;2023-07-09T03:38:34;21.10;99.90
17489;DHT22;8861;52.644;4.734;2023-07-09T03:41:01;21.10;99.90
17489;DHT22;8861;52.644;4.734;2023-07-09T03:43:28;21.10;99.90
17489;DHT22;8861;52.644;4.734;2023-07-09T03:45:55;21.00;99.90
17489;DHT22;8861;52.644;4.734;2023-07-09T03:48:22;21.00;99.90
17489;DHT22;8861;52.644;4.734;2023-07-09T03:50:49;21.00;99.90
17489;DHT22;8861;52.644;4.734;2023-07-09T03:53:18;21.00;99.90
17489;DHT22;8861;52.644;4.734;2023-07-09T03:55:46;21.00;99.90
17489;DHT22;8861;52.644;4.734;2023-07-09T03:58:13;20.90;99.90
17489;DHT22;8861;52.644;4.734;2023-07-09T04:00:40;20.90;99.90
17489;DHT22;8861;52.644;4.734;2023-07-09T04:03:07;20.90;99.90
17489;DHT22;8861;52.644;4.734;2023-07-09T04:05:35;20.90;99.90
17489;DHT22;8861;52.644;4.734;2023-07-09T04:08:03;20.90;99.90
17489;DHT22;8861;52.644;4.734;2023-07-09T04:10:32;20.90;99.90
17489;DHT22;8861;52.644;4.734;2023-07-09T04:12:59;20.90;99.90
17489;DHT22;8861;52.644;4.734;2023-07-09T04:15:26;20.90;99.90
17489;DHT22;8861;52.644;4.734;2023-07-09T04:17:53;20.90;99.90
17489;DHT22;8861;52.644;4.734;2023-07-09T04:20:20;20.90;99.90
17489;DHT22;8861;52.644;4.734;2023-07-09T04:22:48;21.00;99.90
17489;DHT22;8861;52.644;4.734;2023-07-09T04:25:15;21.00;99.90
17489;DHT22;8861;52.644;4.734;2023-07-09T04:27:44;21.00;99.90
17489;DHT22;8861;52.644;4.734;2023-07-09T04:30:12;21.00;99.90
17489;DHT22;8861;52.644;4.734;2023-07-09T04:32:40;21.10;99.90
17489;DHT22;8861;52.644;4.734;2023-07-09T04:35:09;21.10;99.90
17489;DHT22;8861;52.644;4.734;2023-07-09T04:37:37;21.20;99.90
17489;DHT22;8861;52.644;4.734;2023-07-09T04:40:05;21.20;99.90
17489;DHT22;8861;52.644;4.734;2023-07-09T04:42:36;21.30;99.90
17489;DHT22;8861;52.644;4.734;2023-07-09T04:45:07;21.30;99.90
17489;DHT22;8861;52.644;4.734;2023-07-09T04:47:35;21.40;99.90
17489;DHT22;8861;52.644;4.734;2023-07-09T04:50:02;21.40;99.90
17489;DHT22;8861;52.644;4.734;2023-07-09T04:52:30;21.40;99.90
17489;DHT22;8861;52.644;4.734;2023-07-09T04:54:57;21.50;99.90
17489;DHT22;8861;52.644;4.734;2023-07-09T04:57:26;21.50;99.90
17489;DHT22;8861;52.644;4.734;2023-07-09T04:59:53;21.60;99.90
17489;DHT22;8861;52.644;4.734;2023-07-09T05:02:21;21.60;99.90
17489;DHT22;8861;52.644;4.734;2023-07-09T05:04:49;21.70;99.90
17489;DHT22;8861;52.644;4.734;2023-07-09T05:07:16;21.80;99.90
17489;DHT22;8861;52.644;4.734;2023-07-09T05:09:43;21.80;99.90
17489;DHT22;8861;52.644;4.734;2023-07-09T05:12:10;21.90;99.90
17489;DHT22;8861;52.644;4.734;2023-07-09T05:14:37;22.00;99.90
17489;DHT22;8861;52.644;4.734;2023-07-09T05:17:05;22.00;99.90
17489;DHT22;8861;52.644;4.734;2023-07-09T05:19:33;22.00;99.90
17489;DHT22;8861;52.644;4.734;2023-07-09T05:22:00;22.00;99.90
17489;DHT22;8861;52.644;4.734;2023-07-09T05:24:27;22.00;99.90
17489;DHT22;8861;52.644;4.734;2023-07-09T05:26:54;22.00;99.90
17489;DHT22;8861;52.644;4.734;2023-07-09T05:29:21;22.10;99.90
17489;DHT22;8861;52.644;4.734;2023-07-09T05:31:49;22.10;99.90
17489;DHT22;8861;52.644;4.734;2023-07-09T05:34:16;22.20;99.90
17489;DHT22;8861;52.644;4.734;2023-07-09T05:36:44;22.20;99.90
17489;DHT22;8861;52.644;4.734;2023-07-09T05:39:11;22.20;99.90
17489;DHT22;8861;52.644;4.734;2023-07-09T05:41:38;22.20;99.90
17489;DHT22;8861;52.644;4.734;2023-07-09T05:44:06;22.20;99.90
17489;DHT22;8861;52.644;4.734;2023-07-09T05:46:34;22.20;99.90
17489;DHT22;8861;52.644;4.734;2023-07-09T05:49:03;22.20;99.90
17489;DHT22;8861;52.644;4.734;2023-07-09T05:51:30;22.30;99.90
17489;DHT22;8861;52.644;4.734;2023-07-09T05:53:59;22.30;99.90
17489;DHT22;8861;52.644;4.734;2023-07-09T05:56:26;22.40;99.90
17489;DHT22;8861;52.644;4.734;2023-07-09T05:58:53;22.50;99.90
17489;DHT22;8861;52.644;4.734;2023-07-09T06:01:22;22.50;99.90
17489;DHT22;8861;52.644;4.734;2023-07-09T06:03:49;22.60;99.90
17489;DHT22;8861;52.644;4.734;2023-07-09T06:06:15;22.70;99.90
17489;DHT22;8861;52.644;4.734;2023-07-09T06:08:44;22.80;99.90
17489;DHT22;8861;52.644;4.734;2023-07-09T06:11:14;22.90;99.90
17489;DHT22;8861;52.644;4.734;2023-07-09T06:13:41;23.00;99.90
17489;DHT22;8861;52.644;4.734;2023-07-09T06:16:08;23.10;99.90
17489;DHT22;8861;52.644;4.734;2023-07-09T06:18:35;23.20;99.90
17489;DHT22;8861;52.644;4.734;2023-07-09T06:21:03;23.20;99.90
17489;DHT22;8861;52.644;4.734;2023-07-09T06:23:30;23.20;99.90
17489;DHT22;8861;52.644;4.734;2023-07-09T06:25:57;23.30;99.90
17489;DHT22;8861;52.644;4.734;2023-07-09T06:28:27;23.30;99.90
17489;DHT22;8861;52.644;4.734;2023-07-09T06:30:55;23.30;99.90
17489;DHT22;8861;52.644;4.734;2023-07-09T06:33:23;23.40;99.90
17489;DHT22;8861;52.644;4.734;2023-07-09T06:35:52;23.40;99.90
17489;DHT22;8861;52.644;4.734;2023-07-09T06:38:20;23.40;99.90
17489;DHT22;8861;52.644;4.734;2023-07-09T06:40:47;23.40;99.90
17489;DHT22;8861;52.644;4.734;2023-07-09T06:43:14;23.40;99.90
17489;DHT22;8861;52.644;4.734;2023-07-09T06:45:51;23.40;99.90
17489;DHT22;8861;52.644;4.734;2023-07-09T06:48:18;23.50;99.90
17489;DHT22;8861;52.644;4.734;2023-07-09T06:50:45;23.50;99.90
17489;DHT22;8861;52.644;4.734;2023-07-09T06:53:13;23.50;99.90
17489;DHT22;8861;52.644;4.734;2023-07-09T06:55:40;23.50;99.90
17489;DHT22;8861;52.644;4.734;2023-07-09T06:58:07;23.60;99.90
17489;DHT22;8861;52.644;4.734;2023-07-09T07:00:35;23.50;99.90
17489;DHT22;8861;52.644;4.734;2023-07-09T07:03:05;23.60;99.90
17489;DHT22;8861;52.644;4.734;2023-07-09T07:05:32;23.60;99.90
17489;DHT22;8861;52.644;4.734;2023-07-09T07:08:00;23.60;99.90
17489;DHT22;8861;52.644;4.734;2023-07-09T07:10:27;23.60;99.90
17489;DHT22;8861;52.644;4.734;2023-07-09T07:12:54;23.60;99.90
17489;DHT22;8861;52.644;4.734;2023-07-09T07:15:21;23.60;99.90
17489;DHT22;8861;52.644;4.734;2023-07-09T07:17:48;23.60;99.90
17489;DHT22;8861;52.644;4.734;2023-07-09T07:20:18;23.70;99.90
17489;DHT22;8861;52.644;4.734;2023-07-09T07:22:45;23.70;99.90
17489;DHT22;8861;52.644;4.734;2023-07-09T07:25:12;23.80;99.90
17489;DHT22;8861;52.644;4.734;2023-07-09T07:27:44;23.90;99.90
17489;DHT22;8861;52.644;4.734;2023-07-09T07:30:13;24.00;99.90
17489;DHT22;8861;52.644;4.734;2023-07-09T07:32:44;24.10;99.90
17489;DHT22;8861;52.644;4.734;2023-07-09T07:35:11;24.20;99.90
17489;DHT22;8861;52.644;4.734;2023-07-09T07:37:40;24.30;99.90
17489;DHT22;8861;52.644;4.734;2023-07-09T07:40:08;24.30;99.90
17489;DHT22;8861;52.644;4.734;2023-07-09T07:42:36;24.30;99.90
17489;DHT22;8861;52.644;4.734;2023-07-09T07:45:04;24.40;99.90
17489;DHT22;8861;52.644;4.734;2023-07-09T07:47:32;24.40;99.90
17489;DHT22;8861;52.644;4.734;2023-07-09T07:50:00;24.30;99.90
17489;DHT22;8861;52.644;4.734;2023-07-09T07:52:28;24.30;99.90
17489;DHT22;8861;52.644;4.734;2023-07-09T07:54:56;24.30;99.90
17489;DHT22;8861;52.644;4.734;2023-07-09T07:57:24;24.30;99.90
17489;DHT22;8861;52.644;4.734;2023-07-09T07:59:51;24.30;99.90
17489;DHT22;8861;52.644;4.734;2023-07-09T08:02:18;24.40;99.90
17489;DHT22;8861;52.644;4.734;2023-07-09T08:04:45;24.40;99.90
17489;DHT22;8861;52.644;4.734;2023-07-09T08:07:12;24.50;99.90
17489;DHT22;8861;52.644;4.734;2023-07-09T08:09:39;24.50;99.90
17489;DHT22;8861;52.644;4.734;2023-07-09T08:12:09;24.50;99.90
17489;DHT22;8861;52.644;4.734;2023-07-09T08:14:38;24.60;99.90
17489;DHT22;8861;52.644;4.734;2023-07-09T08:17:06;24.70;99.90
17489;DHT22;8861;52.644;4.734;2023-07-09T08:19:43;24.80;99.90
17489;DHT22;8861;52.644;4.734;2023-07-09T08:22:10;24.80;99.90
17489;DHT22;8861;52.644;4.734;2023-07-09T08:24:37;24.90;99.90
17489;DHT22;8861;52.644;4.734;2023-07-09T08:27:07;25.00;99.90
17489;DHT22;8861;52.644;4.734;2023-07-09T08:29:35;25.00;99.90
17489;DHT22;8861;52.644;4.734;2023-07-09T08:32:02;25.10;99.90
17489;DHT22;8861;52.644;4.734;2023-07-09T08:34:29;25.10;99.90
17489;DHT22;8861;52.644;4.734;2023-07-09T08:36:56;25.20;99.90
17489;DHT22;8861;52.644;4.734;2023-07-09T08:39:23;25.30;99.90
17489;DHT22;8861;52.644;4.734;2023-07-09T08:41:55;25.30;99.90
17489;DHT22;8861;52.644;4.734;2023-07-09T08:44:35;25.40;99.90
17489;DHT22;8861;52.644;4.734;2023-07-09T08:47:08;25.40;99.90
17489;DHT22;8861;52.644;4.734;2023-07-09T08:49:45;25.50;99.90
17489;DHT22;8861;52.644;4.734;2023-07-09T08:52:20;25.60;99.90
17489;DHT22;8861;52.644;4.734;2023-07-09T08:54:51;25.70;99.90
17489;DHT22;8861;52.644;4.734;2023-07-09T08:57:23;25.70;99.90
17489;DHT22;8861;52.644;4.734;2023-07-09T08:59:59;25.70;99.90
17489;DHT22;8861;52.644;4.734;2023-07-09T09:02:33;25.70;99.90
17489;DHT22;8861;52.644;4.734;2023-07-09T09:05:03;25.80;99.90
17489;DHT22;8861;52.644;4.734;2023-07-09T09:07:41;25.90;99.90
17489;DHT22;8861;52.644;4.734;2023-07-09T09:10:13;26.00;99.90
17489;DHT22;8861;52.644;4.734;2023-07-09T09:12:56;26.10;99.90
17489;DHT22;8861;52.644;4.734;2023-07-09T09:15:27;26.40;99.90
17489;DHT22;8861;52.644;4.734;2023-07-09T09:18:08;26.50;99.90
17489;DHT22;8861;52.644;4.734;2023-07-09T09:20:39;26.70;99.90
17489;DHT22;8861;52.644;4.734;2023-07-09T09:23:13;26.90;99.90
17489;DHT22;8861;52.644;4.734;2023-07-09T09:25:44;27.00;99.90
17489;DHT22;8861;52.644;4.734;2023-07-09T09:28:12;27.30;99.90
17489;DHT22;8861;52.644;4.734;2023-07-09T09:30:41;27.40;99.90
17489;DHT22;8861;52.644;4.734;2023-07-09T09:33:09;27.40;99.90
17489;DHT22;8861;52.644;4.734;2023-07-09T09:35:39;27.50;99.90
17489;DHT22;8861;52.644;4.734;2023-07-09T09:38:11;27.50;99.90
17489;DHT22;8861;52.644;4.734;2023-07-09T09:40:39;27.50;99.90
17489;DHT22;8861;52.644;4.734;2023-07-09T09:43:12;27.40;99.90
17489;DHT22;8861;52.644;4.734;2023-07-09T09:45:43;27.40;99.90
17489;DHT22;8861;52.644;4.734;2023-07-09T09:48:15;27.40;99.90
17489;DHT22;8861;52.644;4.734;2023-07-09T09:50:42;27.40;99.90
17489;DHT22;8861;52.644;4.734;2023-07-09T09:53:18;27.40;99.90
17489;DHT22;8861;52.644;4.734;2023-07-09T09:55:46;27.40;99.90
17489;DHT22;8861;52.644;4.734;2023-07-09T09:58:15;27.40;99.90
17489;DHT22;8861;52.644;4.734;2023-07-09T10:00:48;27.60;99.90
17489;DHT22;8861;52.644;4.734;2023-07-09T10:03:16;27.70;99.90
17489;DHT22;8861;52.644;4.734;2023-07-09T10:05:45;27.90;99.90
17489;DHT22;8861;52.644;4.734;2023-07-09T10:08:20;28.00;99.90
17489;DHT22;8861;52.644;4.734;2023-07-09T10:10:54;28.10;99.90
17489;DHT22;8861;52.644;4.734;2023-07-09T10:13:28;28.10;99.90
17489;DHT22;8861;52.644;4.734;2023-07-09T10:16:06;28.00;99.90
17489;DHT22;8861;52.644;4.734;2023-07-09T10:18:43;27.90;99.90
17489;DHT22;8861;52.644;4.734;2023-07-09T10:21:15;27.80;99.90
17489;DHT22;8861;52.644;4.734;2023-07-09T10:23:55;27.80;99.90
17489;DHT22;8861;52.644;4.734;2023-07-09T10:26:28;27.70;99.90
17489;DHT22;8861;52.644;4.734;2023-07-09T10:29:16;27.70;99.90
17489;DHT22;8861;52.644;4.734;2023-07-09T10:31:52;27.70;99.90
17489;DHT22;8861;52.644;4.734;2023-07-09T10:34:27;27.70;99.90
17489;DHT22;8861;52.644;4.734;2023-07-09T10:37:08;27.70;99.90
17489;DHT22;8861;52.644;4.734;2023-07-09T10:39:42;27.70;99.90
17489;DHT22;8861;52.644;4.734;2023-07-09T10:42:16;27.70;99.90
17489;DHT22;8861;52.644;4.734;2023-07-09T10:44:48;27.60;99.90
17489;DHT22;8861;52.644;4.734;2023-07-09T10:47:25;27.70;99.90
17489;DHT22;8861;52.644;4.734;2023-07-09T10:49:56;27.70;99.90
17489;DHT22;8861;52.644;4.734;2023-07-09T10:52:27;27.70;99.90
17489;DHT22;8861;52.644;4.734;2023-07-09T10:54:59;27.80;99.90
17489;DHT22;8861;52.644;4.734;2023-07-09T10:57:30;27.90;99.90
17489;DHT22;8861;52.644;4.734;2023-07-09T11:00:01;28.10;99.90
17489;DHT22;8861;52.644;4.734;2023-07-09T11:02:33;28.30;99.90
17489;DHT22;8861;52.644;4.734;2023-07-09T11:05:02;28.40;99.90
17489;DHT22;8861;52.644;4.734;2023-07-09T11:07:33;28.60;99.90
17489;DHT22;8861;52.644;4.734;2023-07-09T11:10:04;28.70;99.90
17489;DHT22;8861;52.644;4.734;2023-07-09T11:12:37;28.80;99.90
17489;DHT22;8861;52.644;4.734;2023-07-09T11:15:10;28.80;99.90
17489;DHT22;8861;52.644;4.734;2023-07-09T11:17:43;28.90;99.90
17489;DHT22;8861;52.644;4.734;2023-07-09T11:20:18;28.90;99.90
17489;DHT22;8861;52.644;4.734;2023-07-09T11:22:53;28.90;99.90
17489;DHT22;8861;52.644;4.734;2023-07-09T11:25:28;29.10;99.90
17489;DHT22;8861;52.644;4.734;2023-07-09T11:28:03;29.30;99.90
17489;DHT22;8861;52.644;4.734;2023-07-09T11:30:32;29.50;99.90
17489;DHT22;8861;52.644;4.734;2023-07-09T11:33:02;29.70;99.90
17489;DHT22;8861;52.644;4.734;2023-07-09T11:35:45;29.90;99.90
17489;DHT22;8861;52.644;4.734;2023-07-09T11:38:17;29.90;99.90
17489;DHT22;8861;52.644;4.734;2023-07-09T11:40:49;30.00;99.90
17489;DHT22;8861;52.644;4.734;2023-07-09T11:43:28;30.00;99.90
17489;DHT22;8861;52.644;4.734;2023-07-09T11:45:57;30.10;99.90
17489;DHT22;8861;52.644;4.734;2023-07-09T11:48:29;30.10;99.90
17489;DHT22;8861;52.644;4.734;2023-07-09T11:51:05;30.10;99.90
17489;DHT22;8861;52.644;4.734;2023-07-09T11:53:37;30.20;99.90
17489;DHT22;8861;52.644;4.734;2023-07-09T11:56:08;30.30;99.90
17489;DHT22;8861;52.644;4.734;2023-07-09T11:58:36;30.40;99.90
17489;DHT22;8861;52.644;4.734;2023-07-09T12:01:14;30.40;99.90
17489;DHT22;8861;52.644;4.734;2023-07-09T12:03:45;30.30;99.90
17489;DHT22;8861;52.644;4.734;2023-07-09T12:06:17;30.20;99.90
17489;DHT22;8861;52.644;4.734;2023-07-09T12:08:46;30.20;99.90
17489;DHT22;8861;52.644;4.734;2023-07-09T12:11:19;30.30;99.90
17489;DHT22;8861;52.644;4.734;2023-07-09T12:13:47;30.60;99.90
17489;DHT22;8861;52.644;4.734;2023-07-09T12:16:25;30.50;99.90
17489;DHT22;8861;52.644;4.734;2023-07-09T12:18:54;30.70;99.90
17489;DHT22;8861;52.644;4.734;2023-07-09T12:21:22;31.20;99.90
17489;DHT22;8861;52.644;4.734;2023-07-09T12:23:50;32.00;99.90
17489;DHT22;8861;52.644;4.734;2023-07-09T12:26:19;32.70;99.90
17489;DHT22;8861;52.644;4.734;2023-07-09T12:28:50;33.40;99.90
17489;DHT22;8861;52.644;4.734;2023-07-09T12:31:20;33.90;99.90
17489;DHT22;8861;52.644;4.734;2023-07-09T12:33:48;33.90;99.90
17489;DHT22;8861;52.644;4.734;2023-07-09T12:36:18;33.10;99.90
17489;DHT22;8861;52.644;4.734;2023-07-09T12:38:47;31.90;99.90
17489;DHT22;8861;52.644;4.734;2023-07-09T12:41:19;30.70;99.90
17489;DHT22;8861;52.644;4.734;2023-07-09T12:43:47;29.40;99.90
17489;DHT22;8861;52.644;4.734;2023-07-09T12:46:15;28.30;99.90
17489;DHT22;8861;52.644;4.734;2023-07-09T12:48:44;27.50;99.90
17489;DHT22;8861;52.644;4.734;2023-07-09T12:51:16;26.80;99.90
17489;DHT22;8861;52.644;4.734;2023-07-09T12:53:46;26.30;99.90
17489;DHT22;8861;52.644;4.734;2023-07-09T12:56:16;26.00;99.90
17489;DHT22;8861;52.644;4.734;2023-07-09T12:58:43;25.80;99.90
17489;DHT22;8861;52.644;4.734;2023-07-09T13:01:16;25.50;99.90
17489;DHT22;8861;52.644;4.734;2023-07-09T13:03:53;25.40;99.90
17489;DHT22;8861;52.644;4.734;2023-07-09T13:06:34;25.30;99.90
17489;DHT22;8861;52.644;4.734;2023-07-09T13:09:13;25.00;99.90
17489;DHT22;8861;52.644;4.734;2023-07-09T13:11:42;24.80;99.90
17489;DHT22;8861;52.644;4.734;2023-07-09T13:14:18;24.60;99.90
17489;DHT22;8861;52.644;4.734;2023-07-09T13:16:46;24.40;99.90
17489;DHT22;8861;52.644;4.734;2023-07-09T13:19:13;24.40;99.90
17489;DHT22;8861;52.644;4.734;2023-07-09T13:21:40;24.20;99.90
17489;DHT22;8861;52.644;4.734;2023-07-09T13:24:14;24.10;99.90
17489;DHT22;8861;52.644;4.734;2023-07-09T13:26:42;24.00;99.90
17489;DHT22;8861;52.644;4.734;2023-07-09T13:29:13;23.80;99.90
17489;DHT22;8861;52.644;4.734;2023-07-09T13:31:41;23.70;99.90
17489;DHT22;8861;52.644;4.734;2023-07-09T13:34:18;23.70;99.90
17489;DHT22;8861;52.644;4.734;2023-07-09T13:36:45;23.90;99.90
17489;DHT22;8861;52.644;4.734;2023-07-09T13:39:14;24.20;99.90
17489;DHT22;8861;52.644;4.734;2023-07-09T13:41:43;24.40;99.90
17489;DHT22;8861;52.644;4.734;2023-07-09T13:44:13;24.70;99.90
17489;DHT22;8861;52.644;4.734;2023-07-09T13:46:41;25.00;99.90
17489;DHT22;8861;52.644;4.734;2023-07-09T13:49:10;25.10;99.90
17489;DHT22;8861;52.644;4.734;2023-07-09T13:51:37;25.10;99.90
17489;DHT22;8861;52.644;4.734;2023-07-09T13:54:15;25.30;99.90
17489;DHT22;8861;52.644;4.734;2023-07-09T13:56:43;25.50;99.90
17489;DHT22;8861;52.644;4.734;2023-07-09T13:59:13;25.70;99.90
17489;DHT22;8861;52.644;4.734;2023-07-09T14:01:41;25.70;99.90
17489;DHT22;8861;52.644;4.734;2023-07-09T14:04:10;25.70;99.90
17489;DHT22;8861;52.644;4.734;2023-07-09T14:06:38;25.70;99.90
17489;DHT22;8861;52.644;4.734;2023-07-09T14:09:05;25.70;99.90
17489;DHT22;8861;52.644;4.734;2023-07-09T14:11:38;25.40;99.90
17489;DHT22;8861;52.644;4.734;2023-07-09T14:14:15;25.10;99.90
17489;DHT22;8861;52.644;4.734;2023-07-09T14:16:43;24.80;99.90
17489;DHT22;8861;52.644;4.734;2023-07-09T14:19:12;24.50;99.90
17489;DHT22;8861;52.644;4.734;2023-07-09T14:21:40;24.20;99.90
17489;DHT22;8861;52.644;4.734;2023-07-09T14:24:17;24.00;99.90
17489;DHT22;8861;52.644;4.734;2023-07-09T14:26:47;23.90;99.90
17489;DHT22;8861;52.644;4.734;2023-07-09T14:29:14;23.90;99.90
17489;DHT22;8861;52.644;4.734;2023-07-09T14:31:42;24.00;99.90
17489;DHT22;8861;52.644;4.734;2023-07-09T14:34:19;24.50;99.90
17489;DHT22;8861;52.644;4.734;2023-07-09T14:36:47;25.10;99.90
17489;DHT22;8861;52.644;4.734;2023-07-09T14:39:14;25.30;99.90
17489;DHT22;8861;52.644;4.734;2023-07-09T14:41:42;25.30;99.90
17489;DHT22;8861;52.644;4.734;2023-07-09T14:44:22;25.20;99.90
17489;DHT22;8861;52.644;4.734;2023-07-09T14:46:50;25.10;99.90
17489;DHT22;8861;52.644;4.734;2023-07-09T14:49:18;25.10;99.90
17489;DHT22;8861;52.644;4.734;2023-07-09T14:51:46;25.00;99.90
17489;DHT22;8861;52.644;4.734;2023-07-09T14:54:18;24.70;99.90
17489;DHT22;8861;52.644;4.734;2023-07-09T14:56:46;24.30;99.90
17489;DHT22;8861;52.644;4.734;2023-07-09T14:59:14;23.80;99.90
17489;DHT22;8861;52.644;4.734;2023-07-09T15:01:43;23.20;99.90
17489;DHT22;8861;52.644;4.734;2023-07-09T15:04:27;22.50;99.90
17489;DHT22;8861;52.644;4.734;2023-07-09T15:06:55;21.80;99.90
17489;DHT22;8861;52.644;4.734;2023-07-09T15:09:24;21.40;99.90
17489;DHT22;8861;52.644;4.734;2023-07-09T15:11:52;21.00;99.90
17489;DHT22;8861;52.644;4.734;2023-07-09T15:14:20;20.80;99.90
17489;DHT22;8861;52.644;4.734;2023-07-09T15:16:49;20.70;99.90
17489;DHT22;8861;52.644;4.734;2023-07-09T15:19:18;20.60;99.90
17489;DHT22;8861;52.644;4.734;2023-07-09T15:21:45;20.50;99.90
17489;DHT22;8861;52.644;4.734;2023-07-09T15:24:19;20.50;99.90
17489;DHT22;8861;52.644;4.734;2023-07-09T15:26:51;20.40;99.90
17489;DHT22;8861;52.644;4.734;2023-07-09T15:29:20;20.40;99.90
17489;DHT22;8861;52.644;4.734;2023-07-09T15:31:49;20.40;99.90
17489;DHT22;8861;52.644;4.734;2023-07-09T15:34:16;20.50;99.90
17489;DHT22;8861;52.644;4.734;2023-07-09T15:36:44;20.50;99.90
17489;DHT22;8861;52.644;4.734;2023-07-09T15:39:13;20.50;99.90
17489;DHT22;8861;52.644;4.734;2023-07-09T15:41:40;20.60;99.90
17489;DHT22;8861;52.644;4.734;2023-07-09T15:44:10;20.60;99.90
17489;DHT22;8861;52.644;4.734;2023-07-09T15:46:39;20.60;99.90
17489;DHT22;8861;52.644;4.734;2023-07-09T15:49:11;20.60;99.90
17489;DHT22;8861;52.644;4.734;2023-07-09T15:51:39;20.60;99.90
17489;DHT22;8861;52.644;4.734;2023-07-09T15:54:12;20.60;99.90
17489;DHT22;8861;52.644;4.734;2023-07-09T15:56:40;20.60;99.90
17489;DHT22;8861;52.644;4.734;2023-07-09T15:59:22;20.60;99.90
17489;DHT22;8861;52.644;4.734;2023-07-09T16:01:51;20.70;99.90